createdAt,value
2022-08-30T00:00:00.058Z,2.80
2022-08-30T00:01:00.039Z,2.70
2022-08-30T00:02:00.039Z,2.70
2022-08-30T00:03:00.239Z,2.80
2022-08-30T00:04:00.060Z,2.60
2022-08-30T00:05:00.006Z,2.70
2022-08-30T00:05:59.988Z,2.70
2022-08-30T00:06:59.988Z,2.60
2022-08-30T00:07:59.989Z,2.80
2022-08-30T00:08:59.975Z,2.70
2022-08-30T00:09:59.953Z,3.10
2022-08-30T00:10:59.935Z,3.10
2022-08-30T00:11:59.921Z,2.70
2022-08-30T00:12:59.910Z,2.60
2022-08-30T00:13:59.930Z,2.20
2022-08-30T00:14:59.901Z,2.30
2022-08-30T00:15:59.934Z,2.80
2022-08-30T00:16:59.862Z,2.60
2022-08-30T00:17:59.871Z,2.50
2022-08-30T00:18:59.843Z,2.50
2022-08-30T00:19:59.835Z,2.70
2022-08-30T00:20:59.845Z,2.50
2022-08-30T00:21:59.803Z,2.60
2022-08-30T00:22:59.812Z,2.70
2022-08-30T00:23:59.793Z,2.60
2022-08-30T00:24:59.770Z,2.60
2022-08-30T00:25:59.765Z,2.90
2022-08-30T00:26:59.754Z,2.70
2022-08-30T00:27:59.754Z,2.90
2022-08-30T00:28:59.735Z,2.30
2022-08-30T00:29:59.723Z,2.70
2022-08-30T00:30:59.737Z,2.70
2022-08-30T00:31:59.714Z,2.60
2022-08-30T00:32:59.707Z,2.40
2022-08-30T00:33:59.678Z,2.50
2022-08-30T00:34:59.666Z,2.50
2022-08-30T00:35:59.658Z,2.40
2022-08-30T00:36:59.647Z,2.60
2022-08-30T00:37:59.639Z,2.70
2022-08-30T00:38:59.619Z,2.40
2022-08-30T00:39:59.670Z,2.60
2022-08-30T00:40:59.599Z,3.10
2022-08-30T00:41:59.610Z,2.30
2022-08-30T00:42:59.950Z,3.00
2022-08-30T00:44:00.896Z,2.80
2022-08-30T00:44:59.648Z,2.30
2022-08-30T00:45:59.604Z,2.70
2022-08-30T00:46:59.602Z,2.50
2022-08-30T00:47:59.609Z,2.50
2022-08-30T00:48:59.511Z,2.90
2022-08-30T00:49:59.502Z,2.50
2022-08-30T00:50:59.497Z,2.70
2022-08-30T00:51:59.491Z,3.40
2022-08-30T00:52:59.486Z,2.50
2022-08-30T00:53:59.492Z,2.60
2022-08-30T00:54:59.450Z,2.40
2022-08-30T00:55:59.465Z,2.60
2022-08-30T00:56:59.444Z,2.50
2022-08-30T00:57:59.426Z,2.70
2022-08-30T00:58:59.405Z,2.80
2022-08-30T00:59:59.401Z,2.40
2022-08-30T01:00:59.384Z,3.00
2022-08-30T01:01:59.424Z,2.60
2022-08-30T01:02:59.505Z,2.50
2022-08-30T01:03:59.353Z,2.80
2022-08-30T01:04:59.336Z,2.50
2022-08-30T01:05:59.334Z,2.70
2022-08-30T01:06:59.325Z,2.60
2022-08-30T01:07:59.316Z,2.70
2022-08-30T01:08:59.299Z,2.40
2022-08-30T01:09:59.288Z,2.50
2022-08-30T01:10:59.276Z,2.50
2022-08-30T01:11:59.307Z,2.60
2022-08-30T01:12:59.347Z,2.50
2022-08-30T01:13:59.250Z,2.70
2022-08-30T01:14:59.228Z,2.40
2022-08-30T01:15:59.237Z,2.60
2022-08-30T01:16:59.219Z,2.50
2022-08-30T01:17:59.200Z,2.70
2022-08-30T01:18:59.198Z,2.60
2022-08-30T01:19:59.189Z,2.60
2022-08-30T01:20:59.170Z,2.70
2022-08-30T01:21:59.171Z,2.60
2022-08-30T01:22:59.140Z,2.60
2022-08-30T01:23:59.141Z,2.30
2022-08-30T01:24:59.120Z,2.40
2022-08-30T01:25:59.112Z,2.60
2022-08-30T01:26:59.142Z,2.50
2022-08-30T01:27:59.083Z,2.70
2022-08-30T01:28:59.082Z,2.20
2022-08-30T01:29:59.074Z,2.50
2022-08-30T01:30:59.113Z,2.40
2022-08-30T01:31:59.069Z,2.60
2022-08-30T01:32:59.053Z,3.00
2022-08-30T01:33:59.024Z,2.50
2022-08-30T01:34:59.028Z,2.70
2022-08-30T01:35:59.004Z,2.60
2022-08-30T01:36:59.004Z,2.70
2022-08-30T01:37:58.985Z,2.90
2022-08-30T01:38:58.981Z,2.90
2022-08-30T01:39:59.014Z,2.90
2022-08-30T01:40:58.955Z,2.90
2022-08-30T01:41:58.946Z,2.50
2022-08-30T01:42:58.927Z,3.20
2022-08-30T01:43:58.916Z,2.90
2022-08-30T01:44:58.907Z,3.10
2022-08-30T01:45:58.914Z,3.10
2022-08-30T01:46:58.928Z,2.60
2022-08-30T01:47:59.870Z,2.50
2022-08-30T01:48:58.859Z,2.80
2022-08-30T01:49:58.858Z,2.90
2022-08-30T01:50:58.851Z,2.80
2022-08-30T01:52:01.095Z,2.90
2022-08-30T01:52:58.869Z,2.90
2022-08-30T01:53:58.817Z,3.10
2022-08-30T01:54:58.801Z,2.80
2022-08-30T01:55:58.803Z,2.70
2022-08-30T01:56:58.790Z,3.10
2022-08-30T01:57:58.768Z,2.90
2022-08-30T01:59:02.615Z,2.60
2022-08-30T01:59:58.752Z,2.60
2022-08-30T02:00:58.772Z,2.70
2022-08-30T02:01:58.735Z,3.10
2022-08-30T02:02:58.722Z,2.60
2022-08-30T02:03:58.797Z,3.20
2022-08-30T02:04:58.741Z,2.90
2022-08-30T02:05:58.695Z,3.00
2022-08-30T02:06:58.669Z,3.30
2022-08-30T02:07:58.683Z,2.90
2022-08-30T02:08:58.644Z,3.20
2022-08-30T02:09:58.643Z,2.80
2022-08-30T02:10:58.625Z,2.90
2022-08-30T02:11:58.626Z,3.10
2022-08-30T02:12:58.634Z,3.00
2022-08-30T02:13:58.626Z,2.90
2022-08-30T02:14:58.593Z,3.00
2022-08-30T02:15:58.574Z,3.30
2022-08-30T02:16:58.616Z,3.10
2022-08-30T02:17:58.577Z,2.70
2022-08-30T02:18:58.536Z,3.00
2022-08-30T02:19:58.527Z,3.00
2022-08-30T02:20:58.521Z,3.10
2022-08-30T02:21:58.508Z,2.90
2022-08-30T02:23:01.166Z,2.90
2022-08-30T02:23:58.538Z,3.20
2022-08-30T02:24:58.469Z,2.80
2022-08-30T02:25:58.470Z,2.90
2022-08-30T02:26:58.478Z,2.60
2022-08-30T02:27:58.472Z,2.50
2022-08-30T02:28:59.098Z,2.70
2022-08-30T02:29:58.419Z,3.00
2022-08-30T02:30:58.473Z,2.90
2022-08-30T02:31:58.400Z,3.10
2022-08-30T02:32:58.399Z,3.00
2022-08-30T02:33:58.409Z,2.80
2022-08-30T02:34:58.421Z,3.10
2022-08-30T02:35:58.402Z,3.10
2022-08-30T02:36:58.341Z,3.10
2022-08-30T02:37:58.351Z,2.90
2022-08-30T02:38:58.323Z,3.10
2022-08-30T02:39:58.372Z,2.70
2022-08-30T02:40:58.303Z,2.90
2022-08-30T02:41:58.293Z,3.00
2022-08-30T02:42:58.284Z,2.70
2022-08-30T02:43:58.273Z,3.40
2022-08-30T02:44:58.254Z,2.90
2022-08-30T02:45:58.291Z,2.70
2022-08-30T02:46:58.294Z,3.30
2022-08-30T02:47:58.235Z,3.40
2022-08-30T02:49:00.306Z,3.10
2022-08-30T02:49:58.214Z,2.90
2022-08-30T02:50:58.198Z,2.80
2022-08-30T02:51:58.205Z,3.40
2022-08-30T02:52:58.185Z,3.10
2022-08-30T02:53:58.186Z,3.30
2022-08-30T02:54:58.145Z,3.20
2022-08-30T02:55:58.178Z,3.50
2022-08-30T02:56:58.146Z,3.10
2022-08-30T02:57:58.126Z,3.30
2022-08-30T02:58:58.106Z,3.40
2022-08-30T02:59:58.111Z,3.00
2022-08-30T03:00:58.148Z,3.10
2022-08-30T03:01:58.098Z,2.90
2022-08-30T03:02:58.089Z,3.20
2022-08-30T03:03:58.069Z,3.10
2022-08-30T03:04:58.105Z,3.10
2022-08-30T03:05:58.044Z,3.10
2022-08-30T03:06:58.028Z,2.80
2022-08-30T03:07:58.009Z,2.90
2022-08-30T03:08:57.989Z,3.00
2022-08-30T03:09:57.999Z,3.40
2022-08-30T03:10:57.980Z,3.30
2022-08-30T03:11:57.991Z,3.30
2022-08-30T03:12:57.951Z,3.00
2022-08-30T03:13:57.952Z,3.00
2022-08-30T03:14:57.930Z,2.90
2022-08-30T03:15:57.924Z,3.10
2022-08-30T03:16:57.966Z,2.80
2022-08-30T03:17:57.959Z,3.60
2022-08-30T03:18:57.892Z,3.50
2022-08-30T03:19:57.881Z,3.60
2022-08-30T03:20:57.863Z,3.30
2022-08-30T03:21:57.882Z,3.20
2022-08-30T03:22:57.843Z,3.10
2022-08-30T03:23:57.837Z,3.50
2022-08-30T03:24:57.817Z,3.30
2022-08-30T03:25:57.804Z,3.60
2022-08-30T03:26:57.814Z,3.30
2022-08-30T03:27:57.786Z,3.30
2022-08-30T03:28:57.766Z,3.70
2022-08-30T03:29:57.803Z,3.50
2022-08-30T03:30:57.758Z,3.50
2022-08-30T03:31:57.833Z,3.50
2022-08-30T03:32:57.736Z,3.40
2022-08-30T03:33:57.716Z,3.70
2022-08-30T03:34:57.706Z,3.70
2022-08-30T03:35:57.705Z,3.60
2022-08-30T03:36:57.700Z,3.70
2022-08-30T03:37:57.708Z,3.90
2022-08-30T03:38:57.658Z,3.60
2022-08-30T03:39:57.682Z,4.20
2022-08-30T03:40:57.645Z,4.30
2022-08-30T03:41:57.640Z,3.90
2022-08-30T03:42:57.619Z,3.70
2022-08-30T03:43:59.877Z,3.50
2022-08-30T03:44:57.590Z,3.60
2022-08-30T03:45:57.637Z,3.60
2022-08-30T03:46:57.598Z,3.40
2022-08-30T03:47:57.601Z,3.50
2022-08-30T03:48:57.550Z,3.60
2022-08-30T03:49:57.558Z,3.70
2022-08-30T03:50:57.530Z,3.30
2022-08-30T03:51:57.520Z,3.40
2022-08-30T03:52:57.531Z,3.50
2022-08-30T03:53:57.511Z,4.10
2022-08-30T03:54:57.482Z,3.40
2022-08-30T03:55:57.482Z,3.80
2022-08-30T03:56:57.461Z,3.50
2022-08-30T03:57:57.475Z,3.90
2022-08-30T03:58:57.443Z,3.50
2022-08-30T03:59:57.438Z,3.70
2022-08-30T04:00:57.440Z,3.80
2022-08-30T04:01:57.451Z,4.00
2022-08-30T04:02:57.407Z,4.40
2022-08-30T04:03:57.415Z,3.80
2022-08-30T04:04:57.403Z,3.80
2022-08-30T04:05:57.395Z,3.70
2022-08-30T04:06:57.354Z,3.60
2022-08-30T04:07:57.354Z,3.70
2022-08-30T04:08:57.334Z,3.90
2022-08-30T04:09:57.326Z,3.80
2022-08-30T04:10:57.306Z,3.50
2022-08-30T04:11:57.298Z,4.00
2022-08-30T04:12:57.296Z,3.90
2022-08-30T04:13:57.278Z,3.50
2022-08-30T04:14:57.265Z,3.90
2022-08-30T04:15:57.269Z,3.70
2022-08-30T04:16:57.248Z,3.70
2022-08-30T04:17:57.247Z,3.60
2022-08-30T04:18:57.217Z,3.90
2022-08-30T04:19:57.219Z,3.80
2022-08-30T04:20:57.200Z,4.10
2022-08-30T04:21:57.207Z,4.30
2022-08-30T04:22:57.169Z,3.60
2022-08-30T04:23:57.168Z,3.50
2022-08-30T04:24:57.146Z,3.60
2022-08-30T04:25:57.150Z,3.70
2022-08-30T04:26:57.151Z,3.90
2022-08-30T04:27:57.120Z,3.90
2022-08-30T04:28:57.114Z,3.80
2022-08-30T04:29:57.103Z,3.70
2022-08-30T04:30:57.084Z,3.80
2022-08-30T04:31:57.174Z,3.60
2022-08-30T04:32:58.897Z,3.90
2022-08-30T04:33:57.052Z,3.80
2022-08-30T04:34:57.040Z,3.40
2022-08-30T04:35:57.073Z,3.60
2022-08-30T04:36:57.021Z,4.10
2022-08-30T04:37:57.013Z,4.10
2022-08-30T04:38:57.013Z,4.00
2022-08-30T04:39:57.070Z,4.10
2022-08-30T04:40:57.040Z,4.60
2022-08-30T04:41:56.984Z,4.10
2022-08-30T04:42:56.963Z,4.10
2022-08-30T04:43:56.982Z,4.10
2022-08-30T04:44:57.154Z,4.20
2022-08-30T04:45:57.006Z,4.20
2022-08-30T04:46:56.917Z,4.10
2022-08-30T04:47:57.238Z,4.00
2022-08-30T04:48:56.875Z,4.10
2022-08-30T04:49:56.882Z,3.80
2022-08-30T04:50:56.864Z,3.70
2022-08-30T04:51:56.864Z,3.70
2022-08-30T04:52:56.847Z,4.30
2022-08-30T04:53:56.894Z,4.10
2022-08-30T04:54:56.826Z,3.80
2022-08-30T04:55:56.816Z,3.60
2022-08-30T04:56:56.868Z,3.80
2022-08-30T04:57:56.795Z,3.70
2022-08-30T04:58:56.867Z,4.80
2022-08-30T04:59:56.768Z,4.20
2022-08-30T05:00:56.794Z,4.30
2022-08-30T05:01:56.770Z,4.20
2022-08-30T05:02:56.738Z,4.00
2022-08-30T05:03:56.718Z,4.30
2022-08-30T05:04:56.723Z,4.00
2022-08-30T05:05:56.690Z,4.00
2022-08-30T05:06:56.688Z,4.40
2022-08-30T05:07:56.680Z,4.00
2022-08-30T05:08:56.667Z,3.90
2022-08-30T05:09:56.650Z,3.90
2022-08-30T05:10:56.641Z,3.80
2022-08-30T05:11:56.759Z,4.10
2022-08-30T05:12:56.630Z,4.10
2022-08-30T05:13:56.620Z,3.80
2022-08-30T05:14:56.611Z,4.00
2022-08-30T05:15:56.630Z,3.80
2022-08-30T05:16:56.573Z,4.10
2022-08-30T05:17:56.573Z,3.90
2022-08-30T05:18:56.552Z,4.00
2022-08-30T05:19:56.539Z,4.10
2022-08-30T05:20:56.534Z,3.90
2022-08-30T05:21:56.515Z,4.10
2022-08-30T05:22:56.523Z,4.40
2022-08-30T05:23:56.502Z,4.20
2022-08-30T05:24:56.493Z,4.60
2022-08-30T05:25:56.473Z,4.50
2022-08-30T05:26:56.465Z,5.20
2022-08-30T05:27:56.453Z,5.10
2022-08-30T05:28:56.443Z,4.10
2022-08-30T05:29:56.437Z,4.70
2022-08-30T05:30:56.423Z,4.40
2022-08-30T05:31:56.428Z,4.90
2022-08-30T05:32:56.407Z,4.70
2022-08-30T05:33:56.436Z,4.50
2022-08-30T05:34:56.377Z,4.90
2022-08-30T05:35:56.366Z,4.70
2022-08-30T05:36:56.367Z,4.90
2022-08-30T05:37:56.356Z,4.50
2022-08-30T05:38:56.335Z,4.50
2022-08-30T05:39:56.333Z,4.80
2022-08-30T05:40:56.308Z,4.70
2022-08-30T05:41:56.307Z,4.50
2022-08-30T05:42:56.308Z,4.50
2022-08-30T05:43:56.291Z,5.00
2022-08-30T05:44:56.259Z,5.10
2022-08-30T05:45:56.259Z,5.30
2022-08-30T05:46:56.239Z,6.00
2022-08-30T05:47:56.289Z,5.80
2022-08-30T05:48:56.220Z,5.80
2022-08-30T05:49:56.213Z,5.50
2022-08-30T05:50:56.201Z,5.80
2022-08-30T05:51:56.190Z,5.60
2022-08-30T05:52:56.201Z,6.00
2022-08-30T05:53:56.171Z,6.80
2022-08-30T05:54:56.151Z,6.80
2022-08-30T05:55:56.150Z,5.60
2022-08-30T05:56:56.166Z,5.90
2022-08-30T05:57:56.124Z,6.40
2022-08-30T05:58:56.113Z,6.50
2022-08-30T05:59:56.106Z,6.70
2022-08-30T06:00:56.094Z,6.00
2022-08-30T06:01:56.132Z,5.40
2022-08-30T06:02:56.151Z,5.60
2022-08-30T06:03:58.379Z,6.00
2022-08-30T06:04:56.052Z,6.20
2022-08-30T06:05:56.047Z,6.30
2022-08-30T06:06:56.032Z,5.90
2022-08-30T06:07:56.016Z,6.80
2022-08-30T06:08:56.005Z,6.30
2022-08-30T06:09:55.994Z,6.60
2022-08-30T06:10:55.986Z,6.90
2022-08-30T06:11:55.986Z,6.60
2022-08-30T06:12:55.961Z,6.30
2022-08-30T06:13:55.946Z,10.40
2022-08-30T06:14:55.937Z,7.10
2022-08-30T06:15:56.018Z,10.40
2022-08-30T06:16:55.957Z,14.10
2022-08-30T06:17:55.910Z,16.00
2022-08-30T06:18:55.901Z,10.70
2022-08-30T06:19:55.888Z,8.20
2022-08-30T06:20:55.895Z,7.30
2022-08-30T06:21:55.878Z,7.60
2022-08-30T06:22:55.847Z,8.40
2022-08-30T06:23:55.891Z,8.60
2022-08-30T06:24:58.005Z,9.00
2022-08-30T06:25:55.823Z,7.30
2022-08-30T06:26:55.848Z,7.70
2022-08-30T06:27:56.597Z,8.60
2022-08-30T06:28:55.811Z,11.80
2022-08-30T06:29:55.771Z,13.80
2022-08-30T06:30:55.776Z,10.80
2022-08-30T06:31:55.772Z,10.90
2022-08-30T06:32:55.732Z,11.20
2022-08-30T06:33:55.732Z,9.50
2022-08-30T06:34:55.714Z,10.00
2022-08-30T06:36:00.445Z,10.40
2022-08-30T06:36:56.703Z,9.00
2022-08-30T06:37:55.692Z,6.10
2022-08-30T06:38:55.674Z,5.40
2022-08-30T06:39:55.664Z,5.10
2022-08-30T06:40:55.657Z,5.00
2022-08-30T06:41:55.657Z,4.50
2022-08-30T06:42:55.626Z,4.30
2022-08-30T06:43:55.633Z,5.10
2022-08-30T06:44:55.616Z,4.40
2022-08-30T06:45:55.597Z,5.30
2022-08-30T06:46:55.651Z,5.60
2022-08-30T06:47:55.632Z,5.20
2022-08-30T06:48:56.177Z,4.70
2022-08-30T06:49:55.586Z,4.60
2022-08-30T06:50:55.557Z,5.00
2022-08-30T06:51:55.540Z,4.60
2022-08-30T06:52:55.550Z,4.40
2022-08-30T06:53:55.521Z,4.30
2022-08-30T06:54:55.496Z,4.20
2022-08-30T06:55:55.500Z,4.40
2022-08-30T06:56:58.609Z,3.90
2022-08-30T06:57:55.472Z,3.70
2022-08-30T06:58:55.461Z,4.40
2022-08-30T06:59:57.289Z,3.60
2022-08-30T07:00:55.433Z,3.60
2022-08-30T07:01:55.520Z,3.30
2022-08-30T07:02:55.514Z,3.30
2022-08-30T07:03:55.418Z,3.80
2022-08-30T07:04:55.394Z,3.30
2022-08-30T07:05:55.396Z,2.80
2022-08-30T07:06:55.386Z,2.80
2022-08-30T07:07:55.363Z,3.00
2022-08-30T07:08:56.343Z,2.90
2022-08-30T07:09:55.336Z,2.60
2022-08-30T07:10:55.327Z,2.50
2022-08-30T07:11:55.329Z,2.60
2022-08-30T07:12:55.308Z,3.10
2022-08-30T07:13:55.310Z,3.00
2022-08-30T07:14:55.291Z,2.90
2022-08-30T07:15:55.324Z,2.90
2022-08-30T07:16:55.269Z,2.80
2022-08-30T07:17:55.262Z,2.80
2022-08-30T07:18:55.245Z,3.40
2022-08-30T07:19:55.235Z,2.70
2022-08-30T07:20:55.216Z,2.70
2022-08-30T07:21:55.212Z,2.80
2022-08-30T07:22:55.189Z,2.70
2022-08-30T07:23:55.191Z,2.90
2022-08-30T07:24:55.164Z,2.80
2022-08-30T07:25:55.176Z,2.80
2022-08-30T07:26:55.155Z,2.90
2022-08-30T07:27:55.144Z,2.90
2022-08-30T07:28:56.198Z,2.70
2022-08-30T07:29:55.127Z,2.60
2022-08-30T07:30:55.106Z,2.50
2022-08-30T07:31:55.117Z,2.30
2022-08-30T07:32:55.077Z,2.40
2022-08-30T07:33:55.076Z,2.40
2022-08-30T07:34:55.058Z,2.80
2022-08-30T07:35:55.129Z,2.10
2022-08-30T07:36:55.039Z,2.20
2022-08-30T07:37:55.051Z,2.40
2022-08-30T07:38:55.030Z,2.70
2022-08-30T07:39:55.020Z,2.50
2022-08-30T07:40:55.020Z,2.60
2022-08-30T07:41:54.992Z,2.40
2022-08-30T07:42:54.972Z,2.30
2022-08-30T07:43:54.973Z,2.50
2022-08-30T07:44:56.946Z,2.60
2022-08-30T07:45:55.108Z,2.30
2022-08-30T07:46:55.069Z,2.40
2022-08-30T07:47:54.935Z,2.70
2022-08-30T07:48:54.916Z,2.40
2022-08-30T07:49:54.906Z,2.70
2022-08-30T07:50:58.251Z,2.80
2022-08-30T07:51:55.886Z,2.30
2022-08-30T07:52:54.878Z,2.30
2022-08-30T07:53:54.867Z,2.40
2022-08-30T07:54:54.848Z,2.60
2022-08-30T07:55:54.873Z,2.50
2022-08-30T07:56:54.829Z,2.60
2022-08-30T07:57:54.831Z,2.60
2022-08-30T07:58:54.813Z,2.50
2022-08-30T07:59:54.803Z,2.80
2022-08-30T08:00:54.800Z,3.00
2022-08-30T08:01:54.818Z,2.70
2022-08-30T08:02:54.826Z,2.60
2022-08-30T08:03:54.757Z,2.90
2022-08-30T08:04:54.744Z,2.90
2022-08-30T08:05:54.742Z,2.60
2022-08-30T08:06:54.722Z,2.30
2022-08-30T08:07:54.723Z,2.30
2022-08-30T08:08:54.704Z,2.30
2022-08-30T08:09:54.724Z,2.30
2022-08-30T08:10:54.703Z,2.40
2022-08-30T08:11:54.834Z,2.30
2022-08-30T08:12:54.668Z,2.60
2022-08-30T08:13:54.679Z,2.50
2022-08-30T08:14:54.637Z,2.20
2022-08-30T08:15:54.674Z,2.40
2022-08-30T08:16:54.739Z,2.50
2022-08-30T08:17:54.598Z,2.60
2022-08-30T08:18:54.597Z,2.20
2022-08-30T08:19:54.581Z,2.70
2022-08-30T08:20:54.596Z,2.40
2022-08-30T08:22:15.289Z,2.40
2022-08-30T08:22:55.561Z,2.20
2022-08-30T08:23:54.543Z,2.40
2022-08-30T08:24:54.560Z,2.40
2022-08-30T08:25:54.591Z,2.70
2022-08-30T08:26:54.513Z,2.70
2022-08-30T08:27:54.525Z,2.70
2022-08-30T08:28:54.493Z,2.40
2022-08-30T08:29:54.474Z,2.40
2022-08-30T08:30:54.532Z,2.60
2022-08-30T08:31:54.455Z,2.60
2022-08-30T08:32:54.454Z,2.20
2022-08-30T08:33:54.461Z,2.20
2022-08-30T08:34:54.428Z,2.70
2022-08-30T08:35:54.426Z,2.40
2022-08-30T08:36:54.396Z,2.50
2022-08-30T08:37:54.388Z,2.80
2022-08-30T08:38:54.392Z,2.60
2022-08-30T08:39:54.372Z,2.40
2022-08-30T08:40:54.451Z,2.90
2022-08-30T08:41:54.350Z,2.50
2022-08-30T08:42:54.339Z,2.70
2022-08-30T08:43:54.339Z,2.50
2022-08-30T08:44:55.633Z,2.40
2022-08-30T08:45:54.365Z,2.50
2022-08-30T08:46:54.315Z,2.50
2022-08-30T08:47:54.296Z,2.30
2022-08-30T08:49:01.418Z,2.30
2022-08-30T08:49:55.263Z,2.50
2022-08-30T08:50:54.268Z,2.30
2022-08-30T08:51:54.235Z,2.40
2022-08-30T08:52:54.235Z,2.80
2022-08-30T08:53:54.215Z,2.50
2022-08-30T08:54:54.215Z,2.50
2022-08-30T08:55:54.210Z,2.30
2022-08-30T08:56:54.188Z,2.20
2022-08-30T08:57:54.180Z,2.10
2022-08-30T08:58:54.196Z,2.60
2022-08-30T08:59:54.169Z,2.50
2022-08-30T09:00:54.189Z,3.20
2022-08-30T09:01:54.217Z,2.50
2022-08-30T09:02:56.014Z,2.30
2022-08-30T09:03:54.111Z,2.40
2022-08-30T09:04:54.158Z,2.50
2022-08-30T09:05:54.113Z,2.60
2022-08-30T09:06:54.082Z,2.40
2022-08-30T09:07:54.069Z,2.20
2022-08-30T09:08:54.063Z,2.40
2022-08-30T09:09:54.042Z,2.40
2022-08-30T09:10:54.073Z,2.60
2022-08-30T09:11:54.026Z,2.30
2022-08-30T09:12:59.347Z,2.70
2022-08-30T09:13:55.004Z,2.40
2022-08-30T09:14:55.663Z,2.40
2022-08-30T09:15:55.105Z,2.60
2022-08-30T09:16:53.986Z,2.70
2022-08-30T09:17:53.960Z,2.50
2022-08-30T09:18:54.889Z,2.50
2022-08-30T09:19:53.951Z,2.30
2022-08-30T09:20:53.948Z,2.30
2022-08-30T09:21:53.928Z,2.40
2022-08-30T09:22:53.919Z,2.50
2022-08-30T09:23:53.908Z,2.40
2022-08-30T09:24:53.900Z,2.50
2022-08-30T09:25:53.901Z,2.60
2022-08-30T09:26:53.871Z,2.50
2022-08-30T09:27:53.859Z,2.40
2022-08-30T09:28:53.962Z,2.40
2022-08-30T09:29:53.846Z,2.40
2022-08-30T09:30:53.869Z,2.30
2022-08-30T09:32:10.043Z,2.30
2022-08-30T09:32:54.804Z,2.90
2022-08-30T09:33:53.785Z,2.40
2022-08-30T09:34:53.794Z,2.40
2022-08-30T09:35:54.111Z,2.40
2022-08-30T09:36:53.784Z,2.80
2022-08-30T09:37:53.759Z,3.00
2022-08-30T09:38:53.756Z,4.20
2022-08-30T09:39:53.755Z,3.00
2022-08-30T09:40:53.739Z,4.50
2022-08-30T09:41:53.718Z,2.60
2022-08-30T09:42:53.709Z,2.40
2022-08-30T09:43:53.699Z,2.50
2022-08-30T09:44:53.690Z,2.50
2022-08-30T09:45:53.729Z,2.80
2022-08-30T09:46:53.673Z,2.60
2022-08-30T09:47:53.662Z,2.60
2022-08-30T09:48:53.663Z,2.60
2022-08-30T09:49:53.634Z,2.50
2022-08-30T09:50:53.654Z,2.80
2022-08-30T09:51:53.614Z,2.40
2022-08-30T09:52:55.525Z,6.70
2022-08-30T09:54:16.611Z,2.60
2022-08-30T09:54:54.594Z,2.50
2022-08-30T09:55:53.596Z,2.70
2022-08-30T09:56:53.575Z,2.70
2022-08-30T09:57:53.556Z,2.60
2022-08-30T09:58:53.545Z,2.70
2022-08-30T09:59:53.540Z,2.40
2022-08-30T10:00:53.605Z,2.80
2022-08-30T10:01:53.519Z,2.60
2022-08-30T10:02:53.521Z,2.30
2022-08-30T10:03:53.510Z,2.20
2022-08-30T10:04:53.492Z,2.70
2022-08-30T10:05:53.591Z,2.40
2022-08-30T10:06:53.522Z,2.60
2022-08-30T10:07:53.740Z,2.70
2022-08-30T10:08:53.442Z,2.30
2022-08-30T10:09:53.442Z,2.10
2022-08-30T10:10:53.461Z,3.10
2022-08-30T10:11:53.424Z,2.30
2022-08-30T10:12:53.405Z,2.50
2022-08-30T10:13:53.418Z,2.20
2022-08-30T10:14:53.395Z,2.70
2022-08-30T10:15:53.376Z,2.60
2022-08-30T10:16:53.427Z,2.20
2022-08-30T10:17:53.368Z,2.20
2022-08-30T10:18:53.347Z,2.20
2022-08-30T10:19:53.349Z,2.20
2022-08-30T10:20:53.347Z,2.50
2022-08-30T10:21:53.330Z,2.60
2022-08-30T10:22:53.341Z,2.30
2022-08-30T10:23:53.309Z,2.60
2022-08-30T10:24:53.292Z,2.40
2022-08-30T10:25:53.312Z,2.50
2022-08-30T10:26:53.271Z,2.40
2022-08-30T10:27:53.262Z,2.40
2022-08-30T10:28:53.252Z,2.40
2022-08-30T10:29:53.274Z,2.10
2022-08-30T10:30:53.235Z,2.30
2022-08-30T10:31:53.236Z,1.90
2022-08-30T10:32:53.217Z,2.10
2022-08-30T10:33:53.205Z,2.20
2022-08-30T10:34:53.216Z,2.20
2022-08-30T10:35:53.234Z,2.20
2022-08-30T10:36:53.168Z,2.30
2022-08-30T10:37:53.167Z,2.50
2022-08-30T10:38:53.150Z,2.00
2022-08-30T10:39:53.139Z,2.10
2022-08-30T10:40:53.139Z,2.10
2022-08-30T10:41:53.130Z,2.10
2022-08-30T10:42:53.121Z,2.30
2022-08-30T10:43:53.127Z,2.20
2022-08-30T10:44:53.128Z,2.20
2022-08-30T10:45:53.092Z,2.20
2022-08-30T10:46:53.075Z,2.30
2022-08-30T10:47:53.063Z,2.20
2022-08-30T10:48:53.042Z,2.20
2022-08-30T10:49:53.043Z,2.00
2022-08-30T10:50:53.043Z,2.10
2022-08-30T10:51:53.027Z,2.20
2022-08-30T10:52:53.015Z,2.60
2022-08-30T10:53:53.025Z,2.20
2022-08-30T10:54:52.986Z,2.50
2022-08-30T10:55:53.000Z,2.20
2022-08-30T10:56:53.010Z,2.10
2022-08-30T10:57:52.966Z,2.30
2022-08-30T10:58:52.948Z,2.50
2022-08-30T10:59:52.961Z,2.40
2022-08-30T11:00:53.049Z,2.30
2022-08-30T11:01:52.956Z,2.10
2022-08-30T11:02:52.929Z,2.00
2022-08-30T11:03:52.910Z,2.30
2022-08-30T11:04:52.911Z,2.20
2022-08-30T11:05:52.951Z,2.50
2022-08-30T11:06:54.012Z,2.20
2022-08-30T11:07:52.883Z,2.40
2022-08-30T11:08:52.865Z,2.00
2022-08-30T11:09:52.846Z,2.30
2022-08-30T11:10:52.943Z,2.40
2022-08-30T11:11:52.835Z,2.30
2022-08-30T11:12:52.825Z,2.10
2022-08-30T11:13:57.002Z,2.10
2022-08-30T11:14:52.803Z,2.10
2022-08-30T11:15:52.805Z,2.10
2022-08-30T11:16:52.789Z,2.30
2022-08-30T11:17:52.787Z,2.60
2022-08-30T11:18:52.795Z,2.20
2022-08-30T11:19:52.772Z,2.20
2022-08-30T11:20:52.759Z,2.50
2022-08-30T11:21:52.729Z,2.60
2022-08-30T11:22:52.780Z,2.40
2022-08-30T11:23:52.721Z,2.40
2022-08-30T11:24:52.714Z,2.40
2022-08-30T11:25:53.370Z,2.30
2022-08-30T11:26:53.700Z,2.20
2022-08-30T11:27:52.684Z,2.00
2022-08-30T11:28:52.782Z,2.60
2022-08-30T11:29:52.663Z,2.60
2022-08-30T11:30:52.676Z,2.00
2022-08-30T11:31:52.644Z,2.40
2022-08-30T11:32:52.644Z,2.20
2022-08-30T11:33:52.655Z,2.40
2022-08-30T11:34:52.625Z,2.50
2022-08-30T11:35:52.625Z,2.20
2022-08-30T11:36:52.605Z,2.20
2022-08-30T11:37:52.595Z,2.40
2022-08-30T11:38:52.628Z,2.10
2022-08-30T11:39:52.589Z,2.10
2022-08-30T11:40:52.588Z,2.40
2022-08-30T11:41:52.569Z,2.20
2022-08-30T11:42:52.548Z,2.60
2022-08-30T11:43:53.238Z,2.80
2022-08-30T11:44:52.549Z,2.20
2022-08-30T11:45:52.719Z,2.50
2022-08-30T11:46:52.542Z,2.30
2022-08-30T11:47:52.510Z,2.20
2022-08-30T11:48:54.508Z,2.20
2022-08-30T11:49:52.494Z,2.40
2022-08-30T11:50:52.502Z,2.60
2022-08-30T11:52:08.559Z,2.00
2022-08-30T11:52:53.532Z,2.00
2022-08-30T11:53:52.469Z,3.10
2022-08-30T11:54:53.404Z,2.20
2022-08-30T11:55:52.459Z,2.50
2022-08-30T11:56:52.444Z,2.40
2022-08-30T11:57:52.430Z,2.10
2022-08-30T11:58:52.468Z,2.10
2022-08-30T11:59:52.434Z,2.30
2022-08-30T12:00:52.914Z,2.40
2022-08-30T12:01:52.457Z,2.20
2022-08-30T12:02:52.486Z,2.00
2022-08-30T12:03:52.367Z,2.20
2022-08-30T12:04:52.367Z,2.40
2022-08-30T12:05:52.369Z,2.10
2022-08-30T12:06:52.341Z,2.30
2022-08-30T12:07:52.353Z,1.80
2022-08-30T12:08:56.521Z,2.40
2022-08-30T12:09:53.345Z,2.40
2022-08-30T12:10:52.330Z,2.50
2022-08-30T12:11:52.310Z,2.10
2022-08-30T12:12:52.292Z,2.30
2022-08-30T12:13:52.329Z,2.30
2022-08-30T12:14:52.281Z,2.20
2022-08-30T12:15:52.339Z,2.00
2022-08-30T12:16:52.310Z,2.10
2022-08-30T12:17:52.363Z,2.20
2022-08-30T12:18:52.263Z,2.20
2022-08-30T12:19:52.246Z,2.40
2022-08-30T12:20:52.215Z,2.20
2022-08-30T12:21:52.202Z,2.20
2022-08-30T12:22:52.344Z,2.20
2022-08-30T12:23:52.186Z,2.40
2022-08-30T12:24:52.186Z,2.00
2022-08-30T12:25:52.166Z,2.00
2022-08-30T12:26:52.209Z,2.10
2022-08-30T12:27:52.147Z,2.10
2022-08-30T12:28:52.163Z,2.30
2022-08-30T12:29:52.142Z,2.00
2022-08-30T12:30:52.123Z,2.30
2022-08-30T12:31:52.147Z,2.00
2022-08-30T12:32:52.111Z,2.50
2022-08-30T12:33:52.092Z,2.20
2022-08-30T12:34:52.090Z,2.20
2022-08-30T12:35:52.083Z,2.00
2022-08-30T12:36:52.062Z,2.20
2022-08-30T12:37:52.064Z,2.50
2022-08-30T12:38:52.056Z,2.20
2022-08-30T12:39:52.696Z,2.30
2022-08-30T12:40:52.034Z,2.20
2022-08-30T12:41:52.015Z,2.40
2022-08-30T12:42:52.009Z,2.30
2022-08-30T12:43:52.009Z,2.20
2022-08-30T12:44:52.000Z,2.30
2022-08-30T12:45:52.037Z,2.30
2022-08-30T12:46:53.957Z,2.30
2022-08-30T12:47:52.950Z,2.40
2022-08-30T12:48:51.939Z,2.20
2022-08-30T12:49:51.949Z,2.20
2022-08-30T12:50:52.082Z,2.30
2022-08-30T12:51:51.940Z,2.60
2022-08-30T12:52:51.911Z,2.40
2022-08-30T12:53:51.891Z,2.30
2022-08-30T12:54:51.900Z,2.40
2022-08-30T12:55:51.882Z,2.00
2022-08-30T12:56:54.150Z,2.80
2022-08-30T12:57:51.855Z,2.10
2022-08-30T12:58:52.851Z,2.10
2022-08-30T12:59:56.745Z,2.00
2022-08-30T13:00:52.919Z,2.00
2022-08-30T13:01:51.949Z,2.20
2022-08-30T13:02:51.836Z,2.30
2022-08-30T13:03:51.804Z,2.40
2022-08-30T13:04:51.827Z,2.30
2022-08-30T13:05:53.196Z,2.50
2022-08-30T13:06:51.777Z,2.20
2022-08-30T13:07:51.769Z,2.10
2022-08-30T13:08:51.809Z,2.30
2022-08-30T13:09:51.752Z,2.30
2022-08-30T13:10:51.740Z,2.00
2022-08-30T13:11:51.721Z,2.50
2022-08-30T13:12:51.726Z,1.90
2022-08-30T13:13:52.404Z,2.60
2022-08-30T13:14:52.484Z,2.10
2022-08-30T13:15:51.719Z,2.30
2022-08-30T13:16:51.727Z,2.20
2022-08-30T13:17:51.674Z,2.30